Time;durP1;ratioP1;P1;durP2;ratioP2;P2;SDS_P1;SDS_P2;PMS_P1;PMS_P2;Temp;Humidity;BMP_temperature;BMP_pressure;BME280_temperature;BME280_humidity;BME280_pressure;Samples;Min_cycle;Max_cycle;Signal;HPM_P1;HPM_P2
2024/01/25 00:02:18;;;;;;;22.63;2.57;;;8.90;99.90;;;;;;5057935;28;20968;-69
2024/01/25 00:04:45;;;;;;;15.23;3.20;;;8.90;99.90;;;;;;5059249;28;20575;-68
2024/01/25 00:07:15;;;;;;;10.10;2.87;;;8.90;99.90;;;;;;5058763;28;20458;-68
2024/01/25 00:09:42;;;;;;;13.07;2.40;;;8.90;99.90;;;;;;5058730;28;20415;-68
2024/01/25 00:12:09;;;;;;;8.90;3.03;;;8.90;99.90;;;;;;5059055;28;20525;-70
2024/01/25 00:14:37;;;;;;;9.07;2.40;;;8.90;99.90;;;;;;5058797;28;20457;-67
2024/01/25 00:17:04;;;;;;;14.33;2.20;;;8.90;99.90;;;;;;5058637;28;20454;-67
2024/01/25 00:19:31;;;;;;;10.67;4.40;;;8.80;99.90;;;;;;5059025;28;20482;-67
2024/01/25 00:21:58;;;;;;;6.63;1.90;;;8.80;99.90;;;;;;5058889;28;20424;-67
2024/01/25 00:24:27;;;;;;;6.43;2.33;;;8.80;99.90;;;;;;5058567;28;20439;-68
2024/01/25 00:26:53;;;;;;;7.63;2.83;;;8.80;99.90;;;;;;5058462;28;20462;-67
2024/01/25 00:29:20;;;;;;;9.50;3.57;;;8.80;99.90;;;;;;5058255;28;20437;-67
2024/01/25 00:31:49;;;;;;;9.23;2.10;;;8.80;99.90;;;;;;5058148;28;20479;-68
2024/01/25 00:34:16;;;;;;;14.93;2.80;;;8.80;99.90;;;;;;5058747;28;20442;-68
2024/01/25 00:43:24;;;;;;;5.70;2.40;;;8.80;99.90;;;;;;4998632;28;20528;-67
2024/01/25 00:45:51;;;;;;;12.83;2.27;;;8.80;99.90;;;;;;4998610;28;20427;-69
2024/01/25 00:48:20;;;;;;;6.97;2.57;;;8.80;99.90;;;;;;4998629;28;20466;-68
2024/01/25 00:50:47;;;;;;;17.60;3.03;;;8.80;99.90;;;;;;4998735;28;20425;-67
2024/01/25 00:53:15;;;;;;;18.30;3.70;;;8.80;99.90;;;;;;4998507;28;20449;-69
2024/01/25 00:55:45;;;;;;;10.63;3.57;;;8.80;99.90;;;;;;4998449;28;20451;-70
2024/01/25 00:58:12;;;;;;;13.97;3.30;;;8.80;99.90;;;;;;4998779;28;20431;-67
2024/01/25 01:00:40;;;;;;;12.83;2.20;;;8.80;99.90;;;;;;4998786;28;20474;-68
2024/01/25 01:03:08;;;;;;;12.13;3.90;;;8.80;99.90;;;;;;4997977;28;20430;-68
2024/01/25 01:05:36;;;;;;;19.30;4.13;;;8.80;99.90;;;;;;4997549;28;20477;-67
2024/01/25 01:08:04;;;;;;;13.10;2.50;;;8.80;99.90;;;;;;4998499;28;20449;-68
2024/01/25 01:10:31;;;;;;;5.40;2.10;;;8.70;99.90;;;;;;4998360;28;20446;-67
2024/01/25 01:12:58;;;;;;;18.33;4.10;;;8.80;99.90;;;;;;4998143;28;20490;-66
2024/01/25 01:15:25;;;;;;;8.57;3.00;;;8.80;99.90;;;;;;4998639;28;20468;-68
2024/01/25 01:17:55;;;;;;;7.47;2.00;;;8.80;99.90;;;;;;5057858;28;20560;-67
2024/01/25 01:20:22;;;;;;;15.47;2.30;;;8.70;99.90;;;;;;5057603;28;20467;-67
2024/01/25 01:22:51;;;;;;;13.70;3.03;;;8.70;99.90;;;;;;5057565;28;20441;-66
2024/01/25 01:25:19;;;;;;;17.13;2.37;;;8.70;99.90;;;;;;5057603;28;20471;-68
2024/01/25 01:27:46;;;;;;;5.70;2.27;;;8.70;99.90;;;;;;5057117;28;20460;-67
2024/01/25 01:30:13;;;;;;;13.87;2.57;;;8.70;99.90;;;;;;5057816;28;20460;-67
2024/01/25 01:32:40;;;;;;;14.90;2.60;;;8.70;99.90;;;;;;5057231;28;20498;-69
2024/01/25 01:35:07;;;;;;;12.83;2.50;;;8.70;99.90;;;;;;5057318;28;20451;-69
2024/01/25 01:37:34;;;;;;;9.67;2.63;;;8.70;99.90;;;;;;5057202;28;20442;-68
2024/01/25 01:40:02;;;;;;;14.00;2.70;;;8.70;99.90;;;;;;5057395;28;20904;-68
2024/01/25 01:42:29;;;;;;;15.40;3.50;;;8.70;99.90;;;;;;5057708;28;20462;-67
2024/01/25 01:44:56;;;;;;;9.20;2.77;;;8.70;99.90;;;;;;5057776;28;20455;-67
2024/01/25 01:47:23;;;;;;;22.23;2.40;;;8.70;99.90;;;;;;5057794;28;20502;-68
2024/01/25 01:49:50;;;;;;;10.73;1.73;;;8.70;99.90;;;;;;5061632;28;20433;-67
2024/01/25 01:52:18;;;;;;;15.80;3.00;;;8.70;99.90;;;;;;5061527;28;20462;-68
2024/01/25 01:54:47;;;;;;;5.80;1.97;;;8.70;99.90;;;;;;5061301;28;20459;-68
2024/01/25 01:57:18;;;;;;;8.27;2.60;;;8.70;99.90;;;;;;5061036;28;20438;-69
2024/01/25 01:59:45;;;;;;;15.17;3.90;;;8.60;99.90;;;;;;5061106;28;20477;-70
2024/01/25 02:02:12;;;;;;;8.30;2.33;;;8.60;99.90;;;;;;5060830;28;20430;-67
2024/01/25 02:04:39;;;;;;;6.80;2.17;;;8.60;99.90;;;;;;5061453;28;20430;-67
2024/01/25 02:07:07;;;;;;;15.60;2.73;;;8.60;99.90;;;;;;5061139;28;20454;-69
2024/01/25 02:09:34;;;;;;;13.73;2.80;;;8.60;99.90;;;;;;5060887;28;20535;-67
2024/01/25 02:12:02;;;;;;;20.83;4.20;;;8.60;99.90;;;;;;5060861;28;20525;-68
2024/01/25 02:14:33;;;;;;;11.60;3.30;;;8.60;99.90;;;;;;5061142;28;20451;-69
2024/01/25 02:17:00;;;;;;;18.37;2.20;;;8.60;99.90;;;;;;5061176;28;20427;-67
2024/01/25 02:19:26;;;;;;;6.67;1.90;;;8.60;99.90;;;;;;5061015;28;20439;-70
2024/01/25 02:21:56;;;;;;;8.87;2.07;;;8.60;99.90;;;;;;5060890;28;20427;-69
2024/01/25 02:24:25;;;;;;;5.90;2.37;;;8.60;99.90;;;;;;5060669;28;20474;-67
2024/01/25 02:26:51;;;;;;;6.50;2.37;;;8.60;99.90;;;;;;5060524;28;20443;-69
2024/01/25 02:29:19;;;;;;;16.40;2.67;;;8.60;99.90;;;;;;5060732;28;20442;-68
2024/01/25 02:31:46;;;;;;;15.70;2.47;;;8.50;99.90;;;;;;5060808;28;20474;-69
2024/01/25 02:34:13;;;;;;;10.03;3.87;;;8.60;99.90;;;;;;5060748;28;20447;-70
2024/01/25 02:36:42;;;;;;;13.70;3.43;;;8.50;99.90;;;;;;5060777;28;20486;-68
2024/01/25 02:39:09;;;;;;;10.40;3.17;;;8.50;99.90;;;;;;5061114;28;20424;-68
2024/01/25 02:41:38;;;;;;;12.40;1.53;;;8.50;99.90;;;;;;5060767;28;20443;-70
2024/01/25 02:44:05;;;;;;;9.13;2.53;;;8.50;99.90;;;;;;5061171;28;20471;-71
2024/01/25 02:46:33;;;;;;;8.17;2.73;;;8.50;99.90;;;;;;5061154;28;20887;-67
2024/01/25 02:49:00;;;;;;;11.57;3.50;;;8.50;99.90;;;;;;5060816;28;20503;-69
2024/01/25 02:51:27;;;;;;;8.73;2.17;;;8.50;99.90;;;;;;5060859;28;20431;-69
2024/01/25 02:53:54;;;;;;;17.20;3.60;;;8.40;99.90;;;;;;5061271;28;20428;-67
2024/01/25 02:56:20;;;;;;;9.77;2.43;;;8.40;99.90;;;;;;5060853;28;20465;-68
2024/01/25 02:58:50;;;;;;;4.77;1.90;;;8.40;99.90;;;;;;5060648;28;20415;-67
2024/01/25 03:01:18;;;;;;;5.63;1.90;;;8.40;99.90;;;;;;5060867;28;20456;-66
2024/01/25 03:03:45;;;;;;;16.83;3.60;;;8.40;99.90;;;;;;5060556;28;20443;-69
2024/01/25 03:06:12;;;;;;;3.73;1.80;;;8.40;99.90;;;;;;5060605;28;20441;-69
2024/01/25 03:08:38;;;;;;;9.33;3.07;;;8.50;99.90;;;;;;5060907;28;20426;-68
2024/01/25 03:11:05;;;;;;;9.87;2.10;;;8.50;99.90;;;;;;5060418;28;20446;-68
2024/01/25 03:13:34;;;;;;;6.23;2.23;;;8.50;99.90;;;;;;5060067;28;20498;-69
2024/01/25 03:16:02;;;;;;;12.07;3.03;;;8.50;99.90;;;;;;5060416;28;20439;-69
2024/01/25 03:18:30;;;;;;;10.80;2.93;;;8.50;99.90;;;;;;5060402;28;20423;-69
2024/01/25 03:21:01;;;;;;;7.73;2.67;;;8.40;99.90;;;;;;5060133;28;20479;-67
2024/01/25 03:23:28;;;;;;;22.93;2.80;;;8.40;99.90;;;;;;5060133;28;20435;-67
2024/01/25 03:25:56;;;;;;;8.60;2.70;;;8.40;99.90;;;;;;5059708;28;20519;-66
2024/01/25 03:28:23;;;;;;;14.40;3.40;;;8.40;99.90;;;;;;5059462;28;20426;-67
2024/01/25 03:30:54;;;;;;;10.00;3.50;;;8.40;99.90;;;;;;5059869;28;20470;-68
2024/01/25 03:33:22;;;;;;;16.73;3.20;;;8.40;99.90;;;;;;5059845;28;20467;-68
2024/01/25 03:35:49;;;;;;;10.40;2.97;;;8.40;99.90;;;;;;5060143;28;20479;-67
2024/01/25 03:38:16;;;;;;;17.30;2.93;;;8.40;99.90;;;;;;5059639;28;20474;-68
2024/01/25 03:40:43;;;;;;;6.30;3.03;;;8.30;99.90;;;;;;5059703;28;20439;-69
2024/01/25 03:43:10;;;;;;;7.97;2.60;;;8.30;99.90;;;;;;5059742;28;20466;-67
2024/01/25 03:45:37;;;;;;;14.70;2.67;;;8.30;99.90;;;;;;5059712;28;20451;-67
2024/01/25 03:48:04;;;;;;;5.20;2.60;;;8.30;99.90;;;;;;5059608;28;20450;-67
2024/01/25 03:50:32;;;;;;;22.33;2.93;;;8.30;99.90;;;;;;5059117;28;20474;-71
2024/01/25 03:53:03;;;;;;;10.50;3.10;;;8.30;99.90;;;;;;5059374;28;20494;-67
2024/01/25 03:55:32;;;;;;;15.07;3.10;;;8.30;99.90;;;;;;5059871;28;20424;-69
2024/01/25 03:57:59;;;;;;;8.20;2.20;;;8.30;99.90;;;;;;5059732;28;20451;-68
2024/01/25 04:00:26;;;;;;;18.90;2.73;;;8.30;99.90;;;;;;5059178;28;20442;-67
2024/01/25 04:02:53;;;;;;;12.47;2.83;;;8.40;99.90;;;;;;5059241;28;20447;-68
2024/01/25 04:05:20;;;;;;;19.77;4.00;;;8.30;99.90;;;;;;5059796;28;20461;-68
2024/01/25 04:07:48;;;;;;;10.13;2.23;;;8.20;99.90;;;;;;5059332;28;20454;-68
2024/01/25 04:10:15;;;;;;;6.63;1.93;;;8.20;99.90;;;;;;5059321;28;20431;-66
2024/01/25 04:12:42;;;;;;;13.73;2.40;;;8.30;99.90;;;;;;5058756;28;20517;-67
2024/01/25 04:15:09;;;;;;;14.40;4.33;;;8.30;99.90;;;;;;5059290;28;20466;-68
2024/01/25 04:17:36;;;;;;;11.97;2.30;;;8.20;99.90;;;;;;5059409;28;20452;-72
2024/01/25 04:20:03;;;;;;;8.87;3.57;;;8.20;99.90;;;;;;5058856;28;20427;-67
2024/01/25 04:22:30;;;;;;;15.60;3.50;;;8.20;99.90;;;;;;5059126;28;20465;-68
2024/01/25 04:24:59;;;;;;;18.20;3.50;;;8.20;99.90;;;;;;5058895;28;20440;-68
2024/01/25 04:27:26;;;;;;;15.17;2.60;;;8.20;99.90;;;;;;5058498;28;20460;-68
2024/01/25 04:29:55;;;;;;;12.60;3.00;;;8.30;99.90;;;;;;5058324;28;20439;-68
2024/01/25 04:32:24;;;;;;;13.10;3.20;;;8.20;99.90;;;;;;5058344;28;20474;-68
2024/01/25 04:34:51;;;;;;;19.73;3.23;;;8.20;99.90;;;;;;5058766;28;20435;-66
2024/01/25 04:37:18;;;;;;;10.00;3.13;;;8.30;99.90;;;;;;5058800;28;20446;-69
2024/01/25 04:39:45;;;;;;;16.83;2.10;;;8.20;99.90;;;;;;5058724;28;20456;-67
2024/01/25 04:42:13;;;;;;;19.67;4.60;;;8.20;99.90;;;;;;5058923;28;20454;-67
2024/01/25 04:44:43;;;;;;;19.30;3.60;;;8.20;99.90;;;;;;5059063;28;20435;-65
2024/01/25 04:47:10;;;;;;;14.70;1.77;;;8.20;99.90;;;;;;5059192;28;20430;-66
2024/01/25 04:49:41;;;;;;;15.50;2.90;;;8.20;99.90;;;;;;5058702;28;20518;-65
2024/01/25 04:52:08;;;;;;;15.53;3.03;;;8.20;99.90;;;;;;5058661;28;20452;-68
2024/01/25 04:54:34;;;;;;;17.37;3.00;;;8.20;99.90;;;;;;5058490;28;20458;-67
2024/01/25 04:57:06;;;;;;;13.67;2.90;;;8.20;99.90;;;;;;5058331;28;20447;-66
2024/01/25 04:59:34;;;;;;;9.80;2.77;;;8.20;99.90;;;;;;5058435;28;20411;-69
2024/01/25 05:02:04;;;;;;;9.10;2.43;;;8.20;99.90;;;;;;5058672;28;20431;-68
2024/01/25 05:04:31;;;;;;;19.53;2.87;;;8.20;99.90;;;;;;5058274;28;20467;-66
2024/01/25 05:06:58;;;;;;;23.87;3.33;;;8.30;99.90;;;;;;5057927;28;20481;-68
2024/01/25 05:09:25;;;;;;;13.00;2.00;;;8.30;99.90;;;;;;5058311;28;20451;-67
2024/01/25 05:11:52;;;;;;;10.63;1.67;;;8.30;99.90;;;;;;5058239;28;20448;-67
2024/01/25 05:14:19;;;;;;;14.43;2.00;;;8.30;99.90;;;;;;5058026;28;20479;-69
2024/01/25 05:16:47;;;;;;;6.93;3.00;;;8.20;99.90;;;;;;5058506;28;20462;-66
2024/01/25 05:19:16;;;;;;;11.73;3.03;;;8.20;99.90;;;;;;5058286;28;20427;-67
2024/01/25 05:21:43;;;;;;;19.10;3.43;;;8.20;99.90;;;;;;5058509;28;20415;-67
2024/01/25 05:24:13;;;;;;;11.37;3.00;;;8.30;99.90;;;;;;5057948;28;20441;-67
2024/01/25 05:26:40;;;;;;;16.37;3.90;;;8.20;99.90;;;;;;5058385;28;20426;-66
2024/01/25 05:29:07;;;;;;;14.33;2.80;;;8.20;99.90;;;;;;5058162;28;20462;-68
2024/01/25 05:31:34;;;;;;;6.87;2.87;;;8.30;99.90;;;;;;5057798;28;20435;-68
2024/01/25 05:34:02;;;;;;;9.93;2.17;;;8.30;99.90;;;;;;5058588;28;20486;-68
2024/01/25 05:36:31;;;;;;;19.87;4.00;;;8.30;99.90;;;;;;5058198;28;20423;-66
2024/01/25 05:38:58;;;;;;;16.40;3.20;;;8.30;99.90;;;;;;5057747;28;20507;-67
2024/01/25 05:41:25;;;;;;;11.30;2.90;;;8.20;99.90;;;;;;5057838;28;20455;-68
2024/01/25 05:43:52;;;;;;;12.50;2.53;;;8.30;99.90;;;;;;5058013;28;20408;-67
2024/01/25 05:46:19;;;;;;;13.03;2.63;;;8.30;99.90;;;;;;5057822;28;20455;-67
2024/01/25 05:48:45;;;;;;;11.57;3.97;;;8.30;99.90;;;;;;5057992;28;20440;-66
2024/01/25 05:51:14;;;;;;;4.60;2.07;;;8.30;99.90;;;;;;5057511;28;20454;-67
2024/01/25 05:53:41;;;;;;;9.50;2.80;;;8.30;99.90;;;;;;5057557;28;20490;-68
2024/01/25 05:56:11;;;;;;;6.77;2.60;;;8.30;99.90;;;;;;5057676;28;20422;-68
2024/01/25 05:58:38;;;;;;;8.60;2.80;;;8.30;99.90;;;;;;5057706;28;20447;-66
2024/01/25 06:01:05;;;;;;;12.30;2.57;;;8.20;99.90;;;;;;5057715;28;20469;-67
2024/01/25 06:03:32;;;;;;;18.17;4.37;;;8.30;99.90;;;;;;5057253;28;20510;-68
2024/01/25 06:06:00;;;;;;;6.47;2.17;;;8.30;99.90;;;;;;5056806;28;20472;-67
2024/01/25 06:08:29;;;;;;;9.67;2.93;;;8.20;99.90;;;;;;5057510;28;20435;-67
2024/01/25 06:10:56;;;;;;;6.17;2.50;;;8.20;99.90;;;;;;5057742;28;20433;-69
2024/01/25 06:13:22;;;;;;;9.57;2.53;;;8.10;99.90;;;;;;5057441;28;20473;-69
2024/01/25 06:15:49;;;;;;;9.80;2.73;;;8.10;99.90;;;;;;5057690;28;20454;-67
2024/01/25 06:18:20;;;;;;;10.67;3.27;;;8.20;99.90;;;;;;5057775;28;20463;-70
2024/01/25 06:20:47;;;;;;;18.90;4.77;;;8.10;99.90;;;;;;5057751;28;20436;-67
2024/01/25 06:23:17;;;;;;;9.00;2.00;;;8.10;99.90;;;;;;5057875;28;20467;-66
2024/01/25 06:25:49;;;;;;;8.40;3.10;;;8.10;99.90;;;;;;5057608;28;20435;-68
2024/01/25 06:28:16;;;;;;;6.97;3.50;;;8.20;99.90;;;;;;5057648;28;20424;-69
2024/01/25 06:30:43;;;;;;;8.10;2.77;;;8.10;99.90;;;;;;5057631;28;20496;-69
2024/01/25 06:33:10;;;;;;;17.07;2.40;;;8.10;99.90;;;;;;5057482;28;20463;-68
2024/01/25 06:35:37;;;;;;;11.00;2.70;;;8.20;99.90;;;;;;5060760;28;20462;-67
2024/01/25 06:38:04;;;;;;;11.63;2.67;;;8.20;99.90;;;;;;5061280;28;20413;-69
2024/01/25 06:40:33;;;;;;;13.50;2.57;;;8.20;99.90;;;;;;5061009;28;20447;-68
2024/01/25 06:43:01;;;;;;;14.63;2.97;;;8.20;99.90;;;;;;5061246;28;20451;-68
2024/01/25 06:45:28;;;;;;;12.40;2.70;;;8.20;99.90;;;;;;5061121;28;20520;-69
2024/01/25 06:47:55;;;;;;;10.23;2.73;;;8.20;99.90;;;;;;5061205;28;20480;-67
2024/01/25 06:50:24;;;;;;;19.80;3.20;;;8.20;99.90;;;;;;5060288;28;20431;-68
2024/01/25 06:52:53;;;;;;;17.33;3.87;;;8.20;99.90;;;;;;5060449;28;20478;-68
2024/01/25 06:55:24;;;;;;;17.30;2.60;;;8.20;99.90;;;;;;5060693;28;20497;-67
2024/01/25 06:57:51;;;;;;;8.03;2.83;;;8.20;99.90;;;;;;5060481;28;20468;-67
2024/01/25 07:00:20;;;;;;;6.70;2.07;;;8.20;99.90;;;;;;5060554;28;20442;-68
2024/01/25 07:02:48;;;;;;;18.30;2.47;;;8.20;99.90;;;;;;5060450;28;20462;-68
2024/01/25 07:05:15;;;;;;;13.70;2.23;;;8.20;99.90;;;;;;5060315;28;20765;-68
2024/01/25 07:07:42;;;;;;;19.87;3.40;;;8.20;99.90;;;;;;5060446;28;20439;-68
2024/01/25 07:10:09;;;;;;;8.77;2.83;;;8.30;99.90;;;;;;5060674;28;20479;-68
2024/01/25 07:12:39;;;;;;;13.53;2.50;;;8.30;99.90;;;;;;5059603;28;20436;-68
2024/01/25 07:15:06;;;;;;;14.00;2.77;;;8.30;99.90;;;;;;5060732;28;20463;-67
2024/01/25 07:17:35;;;;;;;8.97;2.90;;;8.30;99.90;;;;;;5060880;28;20434;-68
2024/01/25 07:20:02;;;;;;;11.80;2.87;;;8.30;99.90;;;;;;5059575;28;20444;-66
2024/01/25 07:22:29;;;;;;;11.00;2.13;;;8.30;99.90;;;;;;5059850;28;20447;-69
2024/01/25 07:24:56;;;;;;;7.10;1.70;;;8.40;99.90;;;;;;5059709;28;20451;-68
2024/01/25 07:27:23;;;;;;;9.60;2.73;;;8.50;99.90;;;;;;5059664;28;20442;-68
2024/01/25 07:29:50;;;;;;;8.20;2.37;;;8.50;99.90;;;;;;5058585;28;20457;-69
2024/01/25 07:32:23;;;;;;;12.63;2.70;;;8.50;99.90;;;;;;5059373;28;20481;-67
2024/01/25 07:34:54;;;;;;;5.43;2.20;;;8.50;99.90;;;;;;5058834;28;20468;-68
2024/01/25 07:37:21;;;;;;;13.80;2.50;;;8.50;99.90;;;;;;5059676;28;21562;-66
2024/01/25 07:39:47;;;;;;;15.90;3.47;;;8.40;99.90;;;;;;5059596;28;20428;-68
2024/01/25 07:42:14;;;;;;;13.47;3.07;;;8.40;99.90;;;;;;5059158;28;20459;-68
2024/01/25 07:44:41;;;;;;;9.80;2.73;;;8.40;99.90;;;;;;5059598;28;20452;-67
2024/01/25 07:47:08;;;;;;;10.70;2.50;;;8.40;99.90;;;;;;5058646;28;20464;-68
2024/01/25 07:49:37;;;;;;;7.43;1.50;;;8.40;99.90;;;;;;5058542;28;20467;-68
2024/01/25 07:52:06;;;;;;;13.10;3.40;;;8.40;99.90;;;;;;5058247;28;20523;-66
2024/01/25 07:54:33;;;;;;;11.03;1.93;;;8.40;99.90;;;;;;5058321;28;20474;-65
2024/01/25 07:56:59;;;;;;;8.63;2.13;;;8.30;99.90;;;;;;5058228;28;20418;-67
2024/01/25 07:59:26;;;;;;;14.07;3.47;;;8.20;99.90;;;;;;5057989;28;20447;-65
2024/01/25 08:01:54;;;;;;;10.27;3.10;;;8.30;99.90;;;;;;5058639;28;20431;-69
2024/01/25 08:04:21;;;;;;;12.83;3.23;;;8.20;99.90;;;;;;5059302;28;20501;-67
2024/01/25 08:06:48;;;;;;;9.80;2.40;;;8.20;99.90;;;;;;5058868;28;20454;-68
2024/01/25 08:09:19;;;;;;;7.30;2.27;;;8.20;99.90;;;;;;5075169;22;20551;-69
2024/01/25 08:12:13;;;;;;;3.30;1.60;;;8.20;99.90;;;;;;5057729;28;20469;-70
2024/01/25 08:14:42;;;;;;;6.87;2.60;;;8.20;99.90;;;;;;5075437;28;20474;-70
2024/01/25 08:17:19;;;;;;;12.87;2.17;;;8.20;99.90;;;;;;5064124;28;20533;-70
2024/01/25 08:19:46;;;;;;;10.97;2.50;;;8.20;99.90;;;;;;5055881;28;20916;-70
2024/01/25 08:22:17;;;;;;;9.30;3.40;;;8.20;99.90;;;;;;5055354;28;20461;-70
2024/01/25 08:24:45;;;;;;;10.50;2.70;;;8.30;99.90;;;;;;5054212;28;20443;-69
2024/01/25 08:27:17;;;;;;;7.20;2.60;;;8.30;99.90;;;;;;5055042;28;20811;-70
2024/01/25 08:29:51;;;;;;;5.07;1.60;;;8.30;99.90;;;;;;5054677;28;20462;-70
2024/01/25 08:32:19;;;;;;;11.53;2.70;;;8.20;99.90;;;;;;5055928;28;20506;-72
2024/01/25 08:34:46;;;;;;;9.47;2.27;;;8.20;99.90;;;;;;5054489;28;20482;-69
2024/01/25 08:37:14;;;;;;;5.23;2.07;;;8.20;99.90;;;;;;5055557;28;20466;-69
2024/01/25 08:39:49;;;;;;;11.30;2.67;;;8.20;99.90;;;;;;5054576;28;20916;-70
2024/01/25 08:42:17;;;;;;;14.37;3.20;;;8.20;99.90;;;;;;5054658;28;20452;-70
2024/01/25 08:44:49;;;;;;;2.77;1.70;;;8.20;99.90;;;;;;5051443;28;20475;-70
2024/01/25 08:47:18;;;;;;;7.43;2.10;;;8.30;99.90;;;;;;5047790;28;20520;-70
2024/01/25 08:49:52;;;;;;;10.63;2.57;;;8.30;99.90;;;;;;5058637;28;20507;-70
2024/01/25 08:52:41;;;;;;;13.40;3.10;;;8.40;99.90;;;;;;5048007;28;20530;-70
2024/01/25 08:55:11;;;;;;;10.57;2.33;;;8.40;99.90;;;;;;5043116;28;20477;-70
2024/01/25 09:00:14;;;;;;;15.00;3.17;;;8.40;99.90;;;;;;5081146;22;20504;-66
2024/01/25 09:02:41;;;;;;;8.13;2.20;;;8.40;99.90;;;;;;5069100;28;20435;-57
2024/01/25 09:05:11;;;;;;;15.00;3.20;;;8.40;99.90;;;;;;5070517;28;20500;-63
2024/01/25 09:07:39;;;;;;;9.27;2.47;;;8.40;99.90;;;;;;5075866;28;20522;-65
2024/01/25 09:10:07;;;;;;;12.13;2.27;;;8.40;99.90;;;;;;5076058;28;20462;-63
2024/01/25 09:12:39;;;;;;;11.33;2.17;;;8.40;99.90;;;;;;5075460;28;20469;-65
2024/01/25 09:15:08;;;;;;;8.43;2.23;;;8.50;99.90;;;;;;5068312;28;20521;-65
2024/01/25 09:17:35;;;;;;;10.80;1.90;;;8.50;99.90;;;;;;5074313;28;20430;-64
2024/01/25 09:20:03;;;;;;;13.33;2.40;;;8.40;99.90;;;;;;5074347;28;20468;-62
2024/01/25 09:22:30;;;;;;;15.57;3.13;;;8.40;99.90;;;;;;5074582;28;20446;-63
2024/01/25 09:24:57;;;;;;;16.53;4.43;;;8.40;99.90;;;;;;5074175;28;20442;-66
2024/01/25 09:27:23;;;;;;;7.30;1.87;;;8.50;99.90;;;;;;5074550;28;20432;-64
2024/01/25 09:29:52;;;;;;;18.63;3.90;;;8.50;99.90;;;;;;5075713;28;20415;-60
2024/01/25 09:32:20;;;;;;;16.73;2.30;;;8.40;99.90;;;;;;5074021;28;20455;-63
2024/01/25 09:34:47;;;;;;;22.60;3.40;;;8.40;99.90;;;;;;5075996;28;20459;-63
2024/01/25 09:37:15;;;;;;;9.03;2.50;;;8.50;99.90;;;;;;5076636;28;20477;-62
2024/01/25 09:39:42;;;;;;;11.17;1.93;;;8.50;99.90;;;;;;5072008;28;20457;-62
2024/01/25 09:42:12;;;;;;;12.80;2.20;;;8.50;99.90;;;;;;5066049;28;20470;-64
2024/01/25 09:44:40;;;;;;;8.57;2.57;;;8.50;99.90;;;;;;5076323;28;20442;-65
2024/01/25 09:47:09;;;;;;;10.50;2.90;;;8.40;99.90;;;;;;5076799;28;20447;-64
2024/01/25 09:49:37;;;;;;;5.57;3.50;;;8.40;99.90;;;;;;5075808;28;20414;-65
2024/01/25 09:52:05;;;;;;;5.60;2.43;;;8.40;99.90;;;;;;5075986;28;20450;-64
2024/01/25 09:54:36;;;;;;;8.97;2.70;;;8.40;99.90;;;;;;5075027;28;20485;-63
2024/01/25 09:57:07;;;;;;;15.10;3.50;;;8.30;99.90;;;;;;5075987;28;20458;-65
2024/01/25 09:59:33;;;;;;;7.77;2.50;;;8.40;99.90;;;;;;5075928;28;20474;-65
2024/01/25 10:02:03;;;;;;;5.23;1.80;;;8.40;99.90;;;;;;5075978;28;20443;-65
2024/01/25 10:04:34;;;;;;;14.10;2.30;;;8.40;99.90;;;;;;5075943;28;20455;-67
2024/01/25 10:07:01;;;;;;;14.30;2.63;;;8.40;99.90;;;;;;5076293;28;20442;-65
2024/01/25 10:09:30;;;;;;;16.70;3.10;;;8.40;99.90;;;;;;5078125;28;20450;-65
2024/01/25 10:11:58;;;;;;;12.20;3.70;;;8.40;99.90;;;;;;5080905;28;20472;-63
2024/01/25 10:14:25;;;;;;;12.60;2.00;;;8.50;99.90;;;;;;5079784;28;20482;-64
2024/01/25 10:16:52;;;;;;;10.13;2.93;;;8.50;99.90;;;;;;5080250;28;20486;-63
2024/01/25 10:19:23;;;;;;;10.50;2.60;;;8.50;99.90;;;;;;5080461;28;20527;-69
2024/01/25 10:21:52;;;;;;;16.83;2.67;;;8.60;99.90;;;;;;5079548;28;20457;-67
2024/01/25 10:24:21;;;;;;;15.23;2.40;;;8.60;99.90;;;;;;5078639;28;20584;-65
2024/01/25 10:26:50;;;;;;;4.67;2.40;;;8.60;99.90;;;;;;5078327;28;20883;-65
2024/01/25 10:29:17;;;;;;;11.10;3.47;;;8.60;99.90;;;;;;5078590;28;20446;-65
2024/01/25 10:31:45;;;;;;;9.10;3.20;;;8.60;99.90;;;;;;5078685;28;20484;-63
2024/01/25 10:34:14;;;;;;;8.00;2.30;;;8.70;99.90;;;;;;5078625;28;20514;-64
2024/01/25 10:36:42;;;;;;;14.13;2.00;;;8.70;99.90;;;;;;5077856;28;20430;-64
2024/01/25 10:39:11;;;;;;;12.13;3.07;;;8.70;99.90;;;;;;5078751;28;20477;-65
2024/01/25 10:41:38;;;;;;;23.53;3.13;;;8.70;99.90;;;;;;5079467;28;20498;-64
2024/01/25 10:44:06;;;;;;;10.10;2.57;;;8.90;99.90;;;;;;5078989;28;20549;-65
2024/01/25 10:46:34;;;;;;;13.93;3.27;;;9.00;99.90;;;;;;5078842;28;20509;-62
2024/01/25 10:49:02;;;;;;;14.23;3.17;;;9.00;99.90;;;;;;5078636;28;20452;-64
2024/01/25 10:51:31;;;;;;;8.23;2.33;;;9.00;99.90;;;;;;5079113;28;20477;-65
2024/01/25 10:53:58;;;;;;;15.23;2.17;;;8.90;99.90;;;;;;5078376;28;20455;-65
2024/01/25 10:56:27;;;;;;;8.30;2.33;;;8.90;99.90;;;;;;5078391;28;20433;-64
2024/01/25 10:58:57;;;;;;;17.70;2.90;;;8.90;99.90;;;;;;5077865;28;20499;-64
2024/01/25 11:01:24;;;;;;;12.53;3.03;;;8.90;99.90;;;;;;5079472;28;20434;-66
2024/01/25 11:03:51;;;;;;;12.80;3.10;;;8.80;99.90;;;;;;5080105;28;20464;-65
2024/01/25 11:06:21;;;;;;;7.00;2.60;;;8.90;99.90;;;;;;5080863;28;20416;-67
2024/01/25 11:08:48;;;;;;;6.97;2.50;;;8.90;99.90;;;;;;5079607;28;20478;-62
2024/01/25 11:11:20;;;;;;;8.93;2.57;;;8.90;99.90;;;;;;5079380;28;20484;-66
2024/01/25 11:13:56;;;;;;;10.27;2.70;;;8.90;99.90;;;;;;5079955;28;20424;-63
2024/01/25 11:16:30;;;;;;;13.33;2.50;;;8.90;99.90;;;;;;5079576;28;20441;-62
2024/01/25 11:18:59;;;;;;;15.43;2.40;;;8.90;99.90;;;;;;5079094;28;20456;-62
2024/01/25 11:21:30;;;;;;;8.70;2.90;;;9.00;99.90;;;;;;5076848;28;20461;-63
2024/01/25 11:24:03;;;;;;;8.50;2.43;;;9.00;99.90;;;;;;5078926;28;20476;-61
2024/01/25 11:26:32;;;;;;;7.00;3.27;;;8.90;99.90;;;;;;5079382;28;20475;-64
2024/01/25 11:29:02;;;;;;;8.50;3.13;;;8.90;99.90;;;;;;5070450;28;20439;-64
2024/01/25 11:31:29;;;;;;;7.10;2.30;;;9.00;99.90;;;;;;5078487;28;20469;-64
2024/01/25 11:33:58;;;;;;;8.87;2.67;;;8.90;99.90;;;;;;5078343;28;20442;-64
2024/01/25 11:36:26;;;;;;;13.13;3.03;;;8.90;99.90;;;;;;5078039;28;20441;-66
2024/01/25 11:38:53;;;;;;;13.60;3.17;;;9.00;99.90;;;;;;5078646;28;20454;-65
2024/01/25 11:41:20;;;;;;;8.53;2.50;;;9.00;99.90;;;;;;5078015;28;20434;-64
2024/01/25 11:43:50;;;;;;;19.77;7.23;;;9.10;99.90;;;;;;5078314;28;20463;-65
2024/01/25 11:46:18;;;;;;;17.53;4.17;;;9.10;99.90;;;;;;5078844;28;20431;-65
2024/01/25 11:48:44;;;;;;;18.27;3.60;;;9.10;99.90;;;;;;5078014;28;20543;-66
2024/01/25 11:51:13;;;;;;;11.47;2.63;;;9.20;99.90;;;;;;5077549;28;20422;-65
2024/01/25 11:53:40;;;;;;;19.43;2.87;;;9.10;99.90;;;;;;5077651;28;20435;-63
2024/01/25 11:56:10;;;;;;;9.00;3.27;;;9.10;99.90;;;;;;5078388;28;20522;-66
2024/01/25 11:58:40;;;;;;;15.77;3.23;;;9.30;99.90;;;;;;5078621;28;20439;-66
2024/01/25 12:01:09;;;;;;;9.40;2.50;;;9.30;99.90;;;;;;5078051;28;20489;-66
2024/01/25 12:03:39;;;;;;;5.93;1.90;;;9.30;99.90;;;;;;5078131;28;20433;-65
2024/01/25 12:06:09;;;;;;;15.53;2.57;;;9.20;99.90;;;;;;5077246;28;20458;-65
2024/01/25 12:08:38;;;;;;;23.03;3.30;;;9.20;99.90;;;;;;5077672;28;20455;-65
2024/01/25 12:11:08;;;;;;;15.17;3.07;;;9.30;99.90;;;;;;5077749;28;20457;-63
2024/01/25 12:13:41;;;;;;;6.97;2.80;;;9.40;99.90;;;;;;5077573;28;20471;-64
2024/01/25 12:16:09;;;;;;;9.60;2.40;;;9.40;99.90;;;;;;5078120;28;20482;-64
2024/01/25 12:18:38;;;;;;;11.70;2.07;;;9.40;99.90;;;;;;5078959;28;20452;-63
2024/01/25 12:21:07;;;;;;;9.07;2.63;;;9.40;99.90;;;;;;5078892;28;20538;-63
2024/01/25 12:23:38;;;;;;;7.67;2.70;;;9.40;99.90;;;;;;5077945;28;20482;-65
2024/01/25 12:26:06;;;;;;;5.60;2.10;;;9.40;99.90;;;;;;5078503;28;20450;-65
2024/01/25 12:28:33;;;;;;;13.73;2.60;;;9.20;99.90;;;;;;5078273;28;20439;-65
2024/01/25 12:31:01;;;;;;;19.37;2.87;;;9.20;99.90;;;;;;5078433;28;20433;-63
2024/01/25 12:33:28;;;;;;;13.40;3.80;;;9.10;99.90;;;;;;5078392;28;20412;-64
2024/01/25 12:35:58;;;;;;;10.13;2.63;;;9.10;99.90;;;;;;5078911;28;20509;-62
2024/01/25 12:38:25;;;;;;;15.10;2.97;;;9.20;99.90;;;;;;5078731;28;20474;-63
2024/01/25 12:40:59;;;;;;;5.17;2.20;;;9.30;99.90;;;;;;5078983;28;20446;-67
2024/01/25 12:43:31;;;;;;;10.30;2.13;;;9.30;99.90;;;;;;5078523;28;20427;-68
2024/01/25 12:45:58;;;;;;;11.57;2.83;;;9.20;99.90;;;;;;5078362;28;20439;-62
2024/01/25 12:48:25;;;;;;;8.97;2.43;;;9.10;99.90;;;;;;5078198;28;20465;-68
2024/01/25 12:50:52;;;;;;;7.33;2.27;;;9.00;99.90;;;;;;5077841;28;20499;-64
2024/01/25 12:53:24;;;;;;;8.87;3.40;;;9.00;99.90;;;;;;5076854;28;20515;-65
2024/01/25 12:55:51;;;;;;;7.53;3.27;;;9.10;99.90;;;;;;5077944;28;20576;-64
2024/01/25 12:58:18;;;;;;;9.87;2.90;;;9.20;99.90;;;;;;5078532;28;20415;-64
2024/01/25 13:00:49;;;;;;;21.20;2.83;;;9.20;99.90;;;;;;5078192;28;20444;-65
2024/01/25 13:03:16;;;;;;;12.00;3.20;;;9.20;99.90;;;;;;5077502;28;20478;-65
2024/01/25 13:05:43;;;;;;;12.00;2.90;;;9.30;99.90;;;;;;5077480;28;21222;-65